ISERY EDDH-EDXW
Flight info
| Callsign | ISERY |
|---|---|
| Flight time | 1h 14m |
| Altitude | 3500 |
| Route | VFR |
| Aircraft | LAMA/L-V/N |
Departure
| Time | 2026-05-06 16:40 |
|---|---|
| Airport | Hamburg Helmut Schmidt Airport (EDDH) |
Arrival
| Time | 2026-05-06 17:54 |
|---|---|
| Airport | Westerland Sylt Airport (EDXW) |
| Time | Latitude | Longitude | Altitude | Speed | Heading |
|---|---|---|---|---|---|
| 2026-05-06 16:28 | 53.62694 | 10.00125 | 58 ft | 0 kts | 333° |
| 2026-05-06 16:31 | 53.62693 | 10.00120 | 58 ft | 0 kts | 330° |
| 2026-05-06 16:32 | 53.62693 | 10.00110 | 60 ft | 1 kts | 37° |
| 2026-05-06 16:32 | 53.62700 | 10.00121 | 62 ft | 1 kts | 65° |
| 2026-05-06 16:32 | 53.62705 | 10.00149 | 63 ft | 4 kts | 66° |
| 2026-05-06 16:32 | 53.62678 | 10.00213 | 65 ft | 12 kts | 140° |
| 2026-05-06 16:33 | 53.62611 | 10.00262 | 69 ft | 6 kts | 183° |
| 2026-05-06 16:33 | 53.62574 | 10.00211 | 65 ft | 5 kts | 240° |
| 2026-05-06 16:33 | 53.62564 | 10.00184 | 58 ft | 0 kts | 250° |
| 2026-05-06 16:34 | 53.62563 | 10.00177 | 60 ft | 5 kts | 235° |
| 2026-05-06 16:34 | 53.62539 | 10.00077 | 61 ft | 9 kts | 308° |
| 2026-05-06 16:35 | 53.62566 | 10.00001 | 61 ft | 3 kts | 341° |
| 2026-05-06 16:35 | 53.62581 | 9.99988 | 62 ft | 3 kts | 339° |
| 2026-05-06 16:35 | 53.62597 | 9.99975 | 62 ft | 0 kts | 340° |
| 2026-05-06 16:35 | 53.62598 | 9.99972 | 62 ft | 0 kts | 338° |
| 2026-05-06 16:36 | 53.62601 | 9.99972 | 62 ft | 0 kts | 337° |
| 2026-05-06 16:36 | 53.62604 | 9.99969 | 62 ft | 1 kts | 337° |
| 2026-05-06 16:36 | 53.62662 | 9.99914 | 78 ft | 31 kts | 345° |
| 2026-05-06 16:37 | 53.63007 | 9.99633 | 74 ft | 69 kts | 340° |
| 2026-05-06 16:37 | 53.63461 | 9.99239 | 96 ft | 76 kts | 342° |
| 2026-05-06 16:37 | 53.63961 | 9.98803 | 92 ft | 82 kts | 346° |
| 2026-05-06 16:37 | 53.64471 | 9.98339 | 99 ft | 83 kts | 340° |
| 2026-05-06 16:38 | 53.64983 | 9.97879 | 146 ft | 85 kts | 341° |
| 2026-05-06 16:38 | 53.65531 | 9.97441 | 215 ft | 85 kts | 351° |
| 2026-05-06 16:38 | 53.66066 | 9.96995 | 287 ft | 86 kts | 347° |
| 2026-05-06 16:38 | 53.66597 | 9.96551 | 382 ft | 83 kts | 351° |
| 2026-05-06 16:39 | 53.67110 | 9.96075 | 442 ft | 85 kts | 352° |
| 2026-05-06 16:39 | 53.67611 | 9.96348 | 520 ft | 76 kts | 51° |
| 2026-05-06 16:39 | 53.67914 | 9.97079 | 590 ft | 77 kts | 66° |
| 2026-05-06 16:39 | 53.68169 | 9.97904 | 631 ft | 80 kts | 69° |
| 2026-05-06 16:40 | 53.68381 | 9.98771 | 665 ft | 81 kts | 74° |
| 2026-05-06 16:40 | 53.68562 | 9.99668 | 698 ft | 81 kts | 74° |
| 2026-05-06 16:40 | 53.68871 | 10.00471 | 715 ft | 81 kts | 52° |
| 2026-05-06 16:40 | 53.69329 | 10.01039 | 723 ft | 82 kts | 41° |
| 2026-05-06 16:41 | 53.69809 | 10.01547 | 780 ft | 81 kts | 41° |
| 2026-05-06 16:41 | 53.70291 | 10.02046 | 834 ft | 80 kts | 41° |
| 2026-05-06 16:41 | 53.70752 | 10.02582 | 863 ft | 82 kts | 45° |
| 2026-05-06 16:41 | 53.71227 | 10.03113 | 906 ft | 81 kts | 36° |
| 2026-05-06 16:42 | 53.71776 | 10.03376 | 936 ft | 83 kts | 21° |
| 2026-05-06 16:42 | 53.72358 | 10.03450 | 975 ft | 85 kts | 14° |
| 2026-05-06 16:42 | 53.72936 | 10.03527 | 1011 ft | 83 kts | 18° |
| 2026-05-06 16:42 | 53.73518 | 10.03591 | 1038 ft | 86 kts | 10° |
| 2026-05-06 16:43 | 53.74133 | 10.03591 | 1014 ft | 88 kts | 7° |
| 2026-05-06 16:43 | 53.74742 | 10.03515 | 992 ft | 90 kts | 4° |
| 2026-05-06 16:43 | 53.75361 | 10.03459 | 1006 ft | 86 kts | 17° |
| 2026-05-06 16:43 | 53.75963 | 10.03444 | 1008 ft | 88 kts | 5° |
| 2026-05-06 16:44 | 53.76577 | 10.03366 | 1042 ft | 84 kts | 4° |
| 2026-05-06 16:44 | 53.77164 | 10.03285 | 1055 ft | 86 kts | 5° |
| 2026-05-06 16:44 | 53.77769 | 10.03213 | 1069 ft | 86 kts | 5° |
| 2026-05-06 16:44 | 53.78372 | 10.03166 | 1071 ft | 86 kts | 7° |
| 2026-05-06 16:45 | 53.79147 | 10.03375 | 1089 ft | 83 kts | 31° |
| 2026-05-06 16:45 | 53.79515 | 10.03569 | 1100 ft | 83 kts | 33° |
| 2026-05-06 16:45 | 53.80083 | 10.03830 | 1088 ft | 85 kts | 29° |
| 2026-05-06 16:45 | 53.80643 | 10.04085 | 1117 ft | 82 kts | 31° |
| 2026-05-06 16:46 | 53.81212 | 10.04317 | 1097 ft | 85 kts | 30° |
| 2026-05-06 16:46 | 53.81786 | 10.04539 | 1132 ft | 83 kts | 25° |
| 2026-05-06 16:46 | 53.82376 | 10.04522 | 1164 ft | 88 kts | 13° |
| 2026-05-06 16:46 | 53.82983 | 10.04386 | 1227 ft | 85 kts | 12° |
| 2026-05-06 16:47 | 53.83577 | 10.04267 | 1250 ft | 86 kts | 13° |
| 2026-05-06 16:47 | 53.84171 | 10.04193 | 1266 ft | 87 kts | 15° |
| 2026-05-06 16:47 | 53.84779 | 10.04113 | 1289 ft | 86 kts | 15° |
| 2026-05-06 16:47 | 53.85382 | 10.04033 | 1323 ft | 87 kts | 14° |
| 2026-05-06 16:48 | 53.85986 | 10.03921 | 1347 ft | 86 kts | 13° |
| 2026-05-06 16:48 | 53.86585 | 10.03787 | 1363 ft | 88 kts | 10° |
| 2026-05-06 16:48 | 53.87190 | 10.03615 | 1400 ft | 87 kts | 10° |
| 2026-05-06 16:48 | 53.87796 | 10.03401 | 1395 ft | 90 kts | 7° |
| 2026-05-06 16:49 | 53.88394 | 10.03161 | 1424 ft | 89 kts | 7° |
| 2026-05-06 16:49 | 53.89010 | 10.02936 | 1424 ft | 89 kts | 9° |
| 2026-05-06 16:49 | 53.89620 | 10.02749 | 1450 ft | 88 kts | 11° |
| 2026-05-06 16:49 | 53.90218 | 10.02620 | 1458 ft | 87 kts | 15° |
| 2026-05-06 16:50 | 53.90813 | 10.02563 | 1490 ft | 85 kts | 17° |
| 2026-05-06 16:50 | 53.91410 | 10.02560 | 1485 ft | 85 kts | 21° |
| 2026-05-06 16:50 | 53.91986 | 10.02664 | 1509 ft | 83 kts | 25° |
| 2026-05-06 16:50 | 53.92571 | 10.02785 | 1518 ft | 84 kts | 24° |
| 2026-05-06 16:51 | 53.93155 | 10.02843 | 1537 ft | 85 kts | 19° |
| 2026-05-06 16:51 | 53.93757 | 10.02804 | 1554 ft | 86 kts | 14° |
| 2026-05-06 16:51 | 53.94348 | 10.02672 | 1569 ft | 87 kts | 11° |
| 2026-05-06 16:51 | 53.94953 | 10.02531 | 1588 ft | 86 kts | 13° |
| 2026-05-06 16:52 | 53.95551 | 10.02447 | 1593 ft | 87 kts | 15° |
| 2026-05-06 16:52 | 53.96166 | 10.02315 | 1602 ft | 88 kts | 10° |
| 2026-05-06 16:52 | 53.96766 | 10.02099 | 1637 ft | 89 kts | 6° |
| 2026-05-06 16:52 | 53.97359 | 10.01826 | 1660 ft | 89 kts | 5° |
| 2026-05-06 16:53 | 53.97961 | 10.01517 | 1676 ft | 90 kts | 3° |
| 2026-05-06 16:53 | 53.98552 | 10.01185 | 1702 ft | 89 kts | 2° |
| 2026-05-06 16:53 | 53.99141 | 10.00827 | 1714 ft | 90 kts | 0° |
| 2026-05-06 16:53 | 53.99729 | 10.00450 | 1752 ft | 89 kts | 359° |
| 2026-05-06 16:54 | 54.00302 | 10.00053 | 1769 ft | 89 kts | 358° |
| 2026-05-06 16:54 | 54.00880 | 9.99637 | 1782 ft | 90 kts | 357° |
| 2026-05-06 16:54 | 54.01452 | 9.99204 | 1795 ft | 91 kts | 356° |
| 2026-05-06 16:54 | 54.02030 | 9.98750 | 1807 ft | 92 kts | 356° |
| 2026-05-06 16:55 | 54.02607 | 9.98277 | 1819 ft | 93 kts | 355° |
| 2026-05-06 16:55 | 54.03185 | 9.97786 | 1837 ft | 93 kts | 354° |
| 2026-05-06 16:55 | 54.03761 | 9.97284 | 1850 ft | 93 kts | 354° |
| 2026-05-06 16:55 | 54.04337 | 9.96772 | 1876 ft | 92 kts | 354° |
| 2026-05-06 16:56 | 54.04916 | 9.96252 | 1886 ft | 94 kts | 353° |
| 2026-05-06 16:56 | 54.05486 | 9.95740 | 1911 ft | 92 kts | 354° |
| 2026-05-06 16:56 | 54.06055 | 9.95232 | 1925 ft | 92 kts | 353° |
| 2026-05-06 16:56 | 54.06624 | 9.94733 | 1947 ft | 92 kts | 353° |
| 2026-05-06 16:57 | 54.07196 | 9.94246 | 1960 ft | 91 kts | 354° |
| 2026-05-06 16:57 | 54.07771 | 9.93774 | 1977 ft | 92 kts | 354° |
| 2026-05-06 16:57 | 54.08345 | 9.93302 | 1991 ft | 91 kts | 355° |
| 2026-05-06 16:57 | 54.08922 | 9.92835 | 1997 ft | 92 kts | 355° |
| 2026-05-06 16:58 | 54.09508 | 9.92370 | 2012 ft | 92 kts | 356° |
| 2026-05-06 16:58 | 54.10090 | 9.91922 | 2019 ft | 93 kts | 357° |
| 2026-05-06 16:58 | 54.10680 | 9.91486 | 2042 ft | 92 kts | 358° |
| 2026-05-06 16:58 | 54.11271 | 9.91067 | 2053 ft | 92 kts | 359° |
| 2026-05-06 16:59 | 54.11872 | 9.90665 | 2068 ft | 92 kts | 0° |
| 2026-05-06 16:59 | 54.12468 | 9.90296 | 2086 ft | 90 kts | 1° |
| 2026-05-06 16:59 | 54.13068 | 9.89959 | 2101 ft | 91 kts | 2° |
| 2026-05-06 16:59 | 54.13667 | 9.89660 | 2125 ft | 89 kts | 4° |
| 2026-05-06 17:00 | 54.14269 | 9.89401 | 2142 ft | 89 kts | 5° |
| 2026-05-06 17:00 | 54.14871 | 9.89178 | 2160 ft | 88 kts | 7° |
| 2026-05-06 17:00 | 54.15471 | 9.88987 | 2167 ft | 88 kts | 9° |
| 2026-05-06 17:00 | 54.16085 | 9.88826 | 2185 ft | 88 kts | 11° |
| 2026-05-06 17:01 | 54.16693 | 9.88697 | 2189 ft | 88 kts | 13° |
| 2026-05-06 17:01 | 54.17300 | 9.88601 | 2204 ft | 88 kts | 14° |
| 2026-05-06 17:01 | 54.17912 | 9.88537 | 2219 ft | 87 kts | 17° |
| 2026-05-06 17:01 | 54.18510 | 9.88512 | 2231 ft | 87 kts | 18° |
| 2026-05-06 17:02 | 54.19121 | 9.88471 | 2247 ft | 89 kts | 11° |
| 2026-05-06 17:02 | 54.19729 | 9.88166 | 2257 ft | 92 kts | 359° |
| 2026-05-06 17:02 | 54.20314 | 9.87681 | 2280 ft | 95 kts | 351° |
| 2026-05-06 17:02 | 54.20871 | 9.87085 | 2280 ft | 95 kts | 347° |
| 2026-05-06 17:03 | 54.21432 | 9.86473 | 2287 ft | 95 kts | 346° |
| 2026-05-06 17:03 | 54.21979 | 9.85819 | 2295 ft | 95 kts | 345° |
| 2026-05-06 17:03 | 54.22530 | 9.85197 | 2283 ft | 96 kts | 347° |
| 2026-05-06 17:03 | 54.23092 | 9.84593 | 2287 ft | 96 kts | 347° |
| 2026-05-06 17:04 | 54.23648 | 9.83947 | 2282 ft | 97 kts | 345° |
| 2026-05-06 17:04 | 54.24199 | 9.83276 | 2288 ft | 97 kts | 345° |
| 2026-05-06 17:04 | 54.24750 | 9.82622 | 2283 ft | 97 kts | 346° |
| 2026-05-06 17:04 | 54.25299 | 9.81928 | 2278 ft | 99 kts | 341° |
| 2026-05-06 17:05 | 54.25835 | 9.81181 | 2277 ft | 99 kts | 341° |
| 2026-05-06 17:05 | 54.26380 | 9.80485 | 2280 ft | 98 kts | 343° |
| 2026-05-06 17:05 | 54.26920 | 9.79782 | 2294 ft | 97 kts | 342° |
| 2026-05-06 17:05 | 54.27462 | 9.79097 | 2294 ft | 96 kts | 345° |
| 2026-05-06 17:06 | 54.28029 | 9.78492 | 2303 ft | 94 kts | 350° |
| 2026-05-06 17:06 | 54.28603 | 9.77979 | 2295 ft | 95 kts | 349° |
| 2026-05-06 17:06 | 54.29145 | 9.77283 | 2286 ft | 99 kts | 336° |
| 2026-05-06 17:06 | 54.29634 | 9.76367 | 2124 ft | 108 kts | 329° |
| 2026-05-06 17:07 | 54.30112 | 9.75419 | 2009 ft | 107 kts | 329° |
| 2026-05-06 17:07 | 54.30587 | 9.74414 | 1855 ft | 109 kts | 327° |
| 2026-05-06 17:07 | 54.31025 | 9.73338 | 1717 ft | 111 kts | 320° |
| 2026-05-06 17:07 | 54.31387 | 9.72166 | 1584 ft | 114 kts | 311° |
| 2026-05-06 17:08 | 54.31663 | 9.70888 | 1455 ft | 114 kts | 307° |
| 2026-05-06 17:08 | 54.31937 | 9.69618 | 1335 ft | 114 kts | 302° |
| 2026-05-06 17:08 | 54.31988 | 9.68251 | 1209 ft | 119 kts | 274° |
| 2026-05-06 17:08 | 54.31702 | 9.66933 | 1151 ft | 115 kts | 250° |
| 2026-05-06 17:09 | 54.31247 | 9.65873 | 1172 ft | 110 kts | 238° |
| 2026-05-06 17:09 | 54.30595 | 9.65262 | 1171 ft | 105 kts | 193° |
| 2026-05-06 17:09 | 54.29888 | 9.65267 | 1204 ft | 100 kts | 176° |
| 2026-05-06 17:09 | 54.29269 | 9.65739 | 1111 ft | 97 kts | 139° |
| 2026-05-06 17:10 | 54.28951 | 9.66649 | 1097 ft | 87 kts | 108° |
| 2026-05-06 17:10 | 54.29047 | 9.67601 | 1079 ft | 79 kts | 64° |
| 2026-05-06 17:10 | 54.29553 | 9.67928 | 1129 ft | 83 kts | 18° |
| 2026-05-06 17:10 | 54.30110 | 9.67548 | 1150 ft | 93 kts | 345° |
| 2026-05-06 17:11 | 54.30593 | 9.66735 | 1143 ft | 98 kts | 331° |
| 2026-05-06 17:11 | 54.31055 | 9.65877 | 1124 ft | 99 kts | 330° |
| 2026-05-06 17:11 | 54.31515 | 9.65004 | 1122 ft | 100 kts | 330° |
| 2026-05-06 17:11 | 54.32012 | 9.64181 | 1125 ft | 99 kts | 336° |
| 2026-05-06 17:12 | 54.32525 | 9.63400 | 1160 ft | 98 kts | 335° |
| 2026-05-06 17:12 | 54.33019 | 9.62577 | 1160 ft | 99 kts | 334° |
| 2026-05-06 17:12 | 54.33501 | 9.61736 | 1181 ft | 99 kts | 331° |
| 2026-05-06 17:12 | 54.33958 | 9.60823 | 1190 ft | 101 kts | 326° |
| 2026-05-06 17:13 | 54.34357 | 9.59843 | 1214 ft | 101 kts | 321° |
| 2026-05-06 17:13 | 54.34736 | 9.58814 | 1219 ft | 103 kts | 319° |
| 2026-05-06 17:13 | 54.35077 | 9.57717 | 1230 ft | 105 kts | 312° |
| 2026-05-06 17:13 | 54.35363 | 9.56574 | 1249 ft | 105 kts | 310° |
| 2026-05-06 17:14 | 54.35651 | 9.55416 | 1261 ft | 105 kts | 311° |
| 2026-05-06 17:14 | 54.35979 | 9.54296 | 1275 ft | 103 kts | 319° |
| 2026-05-06 17:14 | 54.36389 | 9.53303 | 1274 ft | 103 kts | 321° |
| 2026-05-06 17:14 | 54.36720 | 9.52206 | 1293 ft | 104 kts | 311° |
| 2026-05-06 17:15 | 54.37051 | 9.51101 | 1305 ft | 103 kts | 318° |
| 2026-05-06 17:15 | 54.37463 | 9.50116 | 1312 ft | 101 kts | 327° |
| 2026-05-06 17:15 | 54.37942 | 9.49252 | 1323 ft | 98 kts | 336° |
| 2026-05-06 17:15 | 54.38486 | 9.48557 | 1332 ft | 96 kts | 345° |
| 2026-05-06 17:16 | 54.39046 | 9.47973 | 1356 ft | 94 kts | 349° |
| 2026-05-06 17:16 | 54.39632 | 9.47437 | 1362 ft | 94 kts | 353° |
| 2026-05-06 17:16 | 54.40232 | 9.47045 | 1368 ft | 92 kts | 360° |
| 2026-05-06 17:16 | 54.40830 | 9.46673 | 1387 ft | 92 kts | 356° |
| 2026-05-06 17:17 | 54.41424 | 9.46192 | 1389 ft | 94 kts | 353° |
| 2026-05-06 17:17 | 54.42021 | 9.45747 | 1402 ft | 92 kts | 359° |
| 2026-05-06 17:17 | 54.42634 | 9.45434 | 1406 ft | 91 kts | 3° |
| 2026-05-06 17:17 | 54.43240 | 9.45145 | 1418 ft | 92 kts | 2° |
| 2026-05-06 17:18 | 54.43859 | 9.44856 | 1426 ft | 91 kts | 3° |
| 2026-05-06 17:18 | 54.44474 | 9.44558 | 1437 ft | 92 kts | 2° |
| 2026-05-06 17:18 | 54.45085 | 9.44268 | 1455 ft | 91 kts | 4° |
| 2026-05-06 17:18 | 54.45705 | 9.44004 | 1463 ft | 90 kts | 6° |
| 2026-05-06 17:19 | 54.46313 | 9.43798 | 1470 ft | 91 kts | 4° |
| 2026-05-06 17:19 | 54.46915 | 9.43360 | 1465 ft | 96 kts | 347° |
| 2026-05-06 17:19 | 54.47430 | 9.42596 | 1473 ft | 100 kts | 333° |
| 2026-05-06 17:19 | 54.47910 | 9.41736 | 1487 ft | 99 kts | 333° |
| 2026-05-06 17:20 | 54.48402 | 9.40912 | 1496 ft | 98 kts | 336° |
| 2026-05-06 17:20 | 54.48916 | 9.40139 | 1504 ft | 98 kts | 337° |
| 2026-05-06 17:20 | 54.49427 | 9.39348 | 1514 ft | 98 kts | 335° |
| 2026-05-06 17:20 | 54.49943 | 9.38592 | 1533 ft | 97 kts | 342° |
| 2026-05-06 17:21 | 54.50527 | 9.38049 | 1536 ft | 94 kts | 356° |
| 2026-05-06 17:21 | 54.51142 | 9.37756 | 1564 ft | 90 kts | 8° |
| 2026-05-06 17:21 | 54.51756 | 9.37710 | 1568 ft | 88 kts | 18° |
| 2026-05-06 17:21 | 54.52358 | 9.37796 | 1602 ft | 86 kts | 22° |
| 2026-05-06 17:22 | 54.52950 | 9.37934 | 1611 ft | 86 kts | 26° |
| 2026-05-06 17:22 | 54.53523 | 9.38193 | 1632 ft | 84 kts | 34° |
| 2026-05-06 17:22 | 54.54035 | 9.38639 | 1644 ft | 83 kts | 45° |
| 2026-05-06 17:22 | 54.54488 | 9.39264 | 1658 ft | 82 kts | 56° |
| 2026-05-06 17:23 | 54.54847 | 9.40011 | 1670 ft | 82 kts | 62° |
| 2026-05-06 17:23 | 54.55203 | 9.40788 | 1683 ft | 82 kts | 57° |
| 2026-05-06 17:23 | 54.55654 | 9.41402 | 1687 ft | 84 kts | 42° |
| 2026-05-06 17:23 | 54.56208 | 9.41741 | 1695 ft | 85 kts | 28° |
| 2026-05-06 17:24 | 54.56804 | 9.41882 | 1711 ft | 87 kts | 20° |
| 2026-05-06 17:24 | 54.57406 | 9.41918 | 1729 ft | 88 kts | 17° |
| 2026-05-06 17:24 | 54.58024 | 9.41888 | 1752 ft | 88 kts | 14° |
| 2026-05-06 17:24 | 54.58637 | 9.41781 | 1765 ft | 90 kts | 10° |
| 2026-05-06 17:25 | 54.59251 | 9.41601 | 1779 ft | 91 kts | 6° |
| 2026-05-06 17:25 | 54.59864 | 9.41287 | 1799 ft | 92 kts | 358° |
| 2026-05-06 17:25 | 54.60457 | 9.40809 | 1820 ft | 94 kts | 350° |
| 2026-05-06 17:25 | 54.61018 | 9.40251 | 1848 ft | 94 kts | 348° |
| 2026-05-06 17:26 | 54.61589 | 9.39695 | 1862 ft | 94 kts | 349° |
| 2026-05-06 17:26 | 54.62149 | 9.39125 | 1882 ft | 94 kts | 346° |
| 2026-05-06 17:26 | 54.62698 | 9.38467 | 1890 ft | 96 kts | 341° |
| 2026-05-06 17:26 | 54.63215 | 9.37722 | 1904 ft | 97 kts | 336° |
| 2026-05-06 17:27 | 54.63706 | 9.36914 | 1920 ft | 98 kts | 334° |
| 2026-05-06 17:27 | 54.64180 | 9.36065 | 1933 ft | 99 kts | 331° |
| 2026-05-06 17:27 | 54.64648 | 9.35193 | 1948 ft | 99 kts | 333° |
| 2026-05-06 17:27 | 54.65156 | 9.34407 | 1956 ft | 98 kts | 339° |
| 2026-05-06 17:28 | 54.65698 | 9.33691 | 1970 ft | 97 kts | 341° |
| 2026-05-06 17:28 | 54.66244 | 9.33015 | 1979 ft | 97 kts | 342° |
| 2026-05-06 17:28 | 54.66796 | 9.32329 | 1999 ft | 96 kts | 342° |
| 2026-05-06 17:28 | 54.67346 | 9.31674 | 2014 ft | 96 kts | 345° |
| 2026-05-06 17:29 | 54.67912 | 9.31047 | 2026 ft | 96 kts | 341° |
| 2026-05-06 17:29 | 54.68440 | 9.30336 | 2044 ft | 97 kts | 339° |
| 2026-05-06 17:29 | 54.68968 | 9.29602 | 2056 ft | 97 kts | 337° |
| 2026-05-06 17:29 | 54.69477 | 9.28831 | 2073 ft | 97 kts | 336° |
| 2026-05-06 17:30 | 54.69978 | 9.28053 | 2087 ft | 98 kts | 334° |
| 2026-05-06 17:30 | 54.70472 | 9.27241 | 2104 ft | 98 kts | 334° |
| 2026-05-06 17:30 | 54.70962 | 9.26422 | 2112 ft | 99 kts | 333° |
| 2026-05-06 17:30 | 54.71451 | 9.25571 | 2123 ft | 99 kts | 332° |
| 2026-05-06 17:31 | 54.71933 | 9.24722 | 2134 ft | 99 kts | 331° |
| 2026-05-06 17:31 | 54.72413 | 9.23843 | 2145 ft | 100 kts | 329° |
| 2026-05-06 17:31 | 54.72886 | 9.22981 | 2160 ft | 99 kts | 330° |
| 2026-05-06 17:31 | 54.73364 | 9.22121 | 2170 ft | 99 kts | 330° |
| 2026-05-06 17:32 | 54.73844 | 9.21253 | 2183 ft | 99 kts | 329° |
| 2026-05-06 17:32 | 54.74298 | 9.20361 | 2184 ft | 100 kts | 327° |
| 2026-05-06 17:32 | 54.74765 | 9.19452 | 2168 ft | 100 kts | 328° |
| 2026-05-06 17:32 | 54.75217 | 9.18549 | 2165 ft | 100 kts | 327° |
| 2026-05-06 17:33 | 54.75680 | 9.17642 | 2157 ft | 99 kts | 330° |
| 2026-05-06 17:33 | 54.76165 | 9.16806 | 2144 ft | 99 kts | 333° |
| 2026-05-06 17:33 | 54.76658 | 9.15977 | 2138 ft | 98 kts | 335° |
| 2026-05-06 17:33 | 54.77178 | 9.15202 | 2133 ft | 98 kts | 337° |
| 2026-05-06 17:34 | 54.77701 | 9.14430 | 2117 ft | 99 kts | 336° |
| 2026-05-06 17:34 | 54.78239 | 9.13678 | 2110 ft | 98 kts | 339° |
| 2026-05-06 17:34 | 54.78788 | 9.12972 | 2106 ft | 98 kts | 338° |
| 2026-05-06 17:34 | 54.79288 | 9.12167 | 2097 ft | 101 kts | 328° |
| 2026-05-06 17:35 | 54.79699 | 9.11162 | 2091 ft | 103 kts | 315° |
| 2026-05-06 17:35 | 54.79968 | 9.10002 | 2077 ft | 106 kts | 300° |
| 2026-05-06 17:35 | 54.80081 | 9.08717 | 2065 ft | 109 kts | 285° |
| 2026-05-06 17:36 | 54.79781 | 9.06104 | 2044 ft | 112 kts | 257° |
| 2026-05-06 17:36 | 54.79381 | 9.04931 | 2025 ft | 114 kts | 242° |
| 2026-05-06 17:36 | 54.78876 | 9.03891 | 2034 ft | 112 kts | 236° |
| 2026-05-06 17:36 | 54.78350 | 9.02891 | 2022 ft | 113 kts | 236° |
| 2026-05-06 17:37 | 54.77837 | 9.01850 | 2023 ft | 113 kts | 239° |
| 2026-05-06 17:37 | 54.77369 | 9.00744 | 2006 ft | 114 kts | 248° |
| 2026-05-06 17:37 | 54.77075 | 8.99479 | 1980 ft | 113 kts | 266° |
| 2026-05-06 17:37 | 54.76959 | 8.98164 | 1988 ft | 109 kts | 279° |
| 2026-05-06 17:38 | 54.76961 | 8.96854 | 1984 ft | 108 kts | 287° |
| 2026-05-06 17:38 | 54.77027 | 8.95553 | 1982 ft | 107 kts | 289° |
| 2026-05-06 17:38 | 54.77071 | 8.94264 | 1984 ft | 107 kts | 286° |
| 2026-05-06 17:38 | 54.77023 | 8.92970 | 1976 ft | 110 kts | 275° |
| 2026-05-06 17:39 | 54.76852 | 8.91667 | 1972 ft | 111 kts | 266° |
| 2026-05-06 17:39 | 54.76612 | 8.90407 | 1975 ft | 111 kts | 262° |
| 2026-05-06 17:39 | 54.76330 | 8.89157 | 1970 ft | 112 kts | 260° |
| 2026-05-06 17:39 | 54.76102 | 8.87880 | 1947 ft | 111 kts | 274° |
| 2026-05-06 17:40 | 54.76208 | 8.86615 | 1971 ft | 101 kts | 310° |
| 2026-05-06 17:40 | 54.76633 | 8.85761 | 2023 ft | 91 kts | 340° |
| 2026-05-06 17:40 | 54.77164 | 8.85230 | 2104 ft | 86 kts | 351° |
| 2026-05-06 17:40 | 54.77716 | 8.84786 | 2123 ft | 89 kts | 353° |
| 2026-05-06 17:41 | 54.78310 | 8.84403 | 2095 ft | 91 kts | 358° |
| 2026-05-06 17:41 | 54.78907 | 8.84040 | 2103 ft | 91 kts | 355° |
| 2026-05-06 17:41 | 54.79496 | 8.83579 | 2083 ft | 94 kts | 347° |
| 2026-05-06 17:41 | 54.80024 | 8.82889 | 2082 ft | 97 kts | 333° |
| 2026-05-06 17:42 | 54.80459 | 8.81951 | 2060 ft | 102 kts | 320° |
| 2026-05-06 17:42 | 54.80845 | 8.80899 | 2007 ft | 104 kts | 319° |
| 2026-05-06 17:42 | 54.81245 | 8.79874 | 1995 ft | 101 kts | 321° |
| 2026-05-06 17:42 | 54.81644 | 8.78870 | 1957 ft | 102 kts | 322° |
| 2026-05-06 17:43 | 54.82057 | 8.77886 | 1938 ft | 100 kts | 323° |
| 2026-05-06 17:43 | 54.82462 | 8.76901 | 1896 ft | 102 kts | 320° |
| 2026-05-06 17:43 | 54.82831 | 8.75817 | 1851 ft | 103 kts | 316° |
| 2026-05-06 17:43 | 54.83186 | 8.74745 | 1802 ft | 104 kts | 317° |
| 2026-05-06 17:44 | 54.83581 | 8.73708 | 1763 ft | 102 kts | 322° |
| 2026-05-06 17:44 | 54.84007 | 8.72731 | 1725 ft | 101 kts | 323° |
| 2026-05-06 17:44 | 54.84433 | 8.71762 | 1685 ft | 101 kts | 322° |
| 2026-05-06 17:44 | 54.84848 | 8.70772 | 1650 ft | 101 kts | 320° |
| 2026-05-06 17:45 | 54.85264 | 8.69787 | 1515 ft | 102 kts | 324° |
| 2026-05-06 17:45 | 54.85712 | 8.68872 | 1397 ft | 97 kts | 327° |
| 2026-05-06 17:45 | 54.86129 | 8.67992 | 1375 ft | 91 kts | 326° |
| 2026-05-06 17:45 | 54.86518 | 8.67132 | 1360 ft | 89 kts | 326° |
| 2026-05-06 17:46 | 54.86888 | 8.66255 | 1319 ft | 91 kts | 324° |
| 2026-05-06 17:46 | 54.87279 | 8.65384 | 1240 ft | 92 kts | 329° |
| 2026-05-06 17:46 | 54.87722 | 8.64593 | 1206 ft | 88 kts | 332° |
| 2026-05-06 17:46 | 54.88112 | 8.63724 | 1155 ft | 93 kts | 319° |
| 2026-05-06 17:47 | 54.88367 | 8.62684 | 1123 ft | 96 kts | 304° |
| 2026-05-06 17:47 | 54.88503 | 8.61561 | 1146 ft | 92 kts | 297° |
| 2026-05-06 17:47 | 54.88571 | 8.60438 | 1127 ft | 97 kts | 282° |
| 2026-05-06 17:47 | 54.88582 | 8.59252 | 1084 ft | 97 kts | 278° |
| 2026-05-06 17:48 | 54.88546 | 8.58106 | 1095 ft | 96 kts | 272° |
| 2026-05-06 17:48 | 54.88492 | 8.56950 | 1093 ft | 95 kts | 274° |
| 2026-05-06 17:48 | 54.88436 | 8.55803 | 1078 ft | 96 kts | 274° |
| 2026-05-06 17:48 | 54.88406 | 8.54658 | 1100 ft | 93 kts | 276° |
| 2026-05-06 17:49 | 54.88376 | 8.53514 | 1080 ft | 95 kts | 276° |
| 2026-05-06 17:49 | 54.88327 | 8.52364 | 1097 ft | 95 kts | 270° |
| 2026-05-06 17:49 | 54.88187 | 8.51227 | 1098 ft | 99 kts | 262° |
| 2026-05-06 17:49 | 54.88010 | 8.50094 | 1104 ft | 98 kts | 261° |
| 2026-05-06 17:50 | 54.87789 | 8.48965 | 1095 ft | 100 kts | 257° |
| 2026-05-06 17:50 | 54.87540 | 8.47838 | 1116 ft | 97 kts | 257° |
| 2026-05-06 17:50 | 54.87348 | 8.46732 | 1164 ft | 94 kts | 264° |
| 2026-05-06 17:50 | 54.87223 | 8.45612 | 1181 ft | 94 kts | 269° |
| 2026-05-06 17:51 | 54.87154 | 8.44479 | 1157 ft | 97 kts | 274° |
| 2026-05-06 17:51 | 54.87149 | 8.43313 | 1148 ft | 93 kts | 282° |
| 2026-05-06 17:51 | 54.87255 | 8.42211 | 1040 ft | 93 kts | 298° |
| 2026-05-06 17:51 | 54.87475 | 8.41196 | 957 ft | 87 kts | 305° |
| 2026-05-06 17:52 | 54.87694 | 8.40250 | 928 ft | 83 kts | 305° |
| 2026-05-06 17:52 | 54.87921 | 8.39325 | 897 ft | 83 kts | 307° |
| 2026-05-06 17:52 | 54.88183 | 8.38450 | 874 ft | 80 kts | 313° |
| 2026-05-06 17:52 | 54.88483 | 8.37640 | 754 ft | 79 kts | 328° |
| 2026-05-06 17:53 | 54.88879 | 8.37079 | 704 ft | 70 kts | 331° |
| 2026-05-06 17:53 | 54.89268 | 8.36548 | 573 ft | 71 kts | 331° |
| 2026-05-06 17:53 | 54.89676 | 8.36048 | 438 ft | 73 kts | 330° |
| 2026-05-06 17:53 | 54.90091 | 8.35557 | 279 ft | 71 kts | 329° |
| 2026-05-06 17:54 | 54.90487 | 8.35080 | 142 ft | 65 kts | 328° |
| 2026-05-06 17:54 | 54.90808 | 8.34691 | 84 ft | 45 kts | 328° |
| 2026-05-06 17:54 | 54.91014 | 8.34429 | 61 ft | 27 kts | 330° |
| 2026-05-06 17:54 | 54.91129 | 8.34284 | 50 ft | 17 kts | 329° |
| 2026-05-06 17:55 | 54.91221 | 8.34175 | 45 ft | 14 kts | 328° |
| 2026-05-06 17:55 | 54.91297 | 8.34072 | 44 ft | 13 kts | 311° |
| 2026-05-06 17:55 | 54.91253 | 8.33850 | 42 ft | 27 kts | 263° |
| 2026-05-06 17:55 | 54.91158 | 8.33562 | 40 ft | 24 kts | 255° |
| 2026-05-06 17:56 | 54.91087 | 8.33361 | 39 ft | 14 kts | 259° |
| 2026-05-06 17:56 | 54.91054 | 8.33244 | 41 ft | 7 kts | 319° |
| 2026-05-06 17:56 | 54.91015 | 8.33103 | 37 ft | 18 kts | 284° |
| 2026-05-06 17:56 | 54.91028 | 8.32969 | 38 ft | 10 kts | 319° |
| 2026-05-06 17:57 | 54.91073 | 8.32875 | 36 ft | 10 kts | 321° |
| 2026-05-06 17:57 | 54.91133 | 8.32747 | 36 ft | 16 kts | 317° |
| 2026-05-06 17:57 | 54.91202 | 8.32626 | 38 ft | 9 kts | 324° |
| 2026-05-06 17:57 | 54.91223 | 8.32549 | 33 ft | 3 kts | 337° |
| 2026-05-06 17:58 | 54.91227 | 8.32540 | 28 ft | 0 kts | 333° |